createdAt,value
2023-12-16T00:00:23.379Z,89.55
2023-12-16T00:01:19.590Z,90.16
2023-12-16T00:02:03.052Z,90.07
2023-12-16T00:02:43.704Z,90.49
2023-12-16T00:03:17.804Z,90.80
2023-12-16T00:04:03.349Z,90.33
2023-12-16T00:04:39.674Z,90.61
2023-12-16T00:05:13.672Z,90.73
2023-12-16T00:05:49.309Z,90.84
2023-12-16T00:06:23.635Z,90.95
2023-12-16T00:06:59.702Z,90.78
2023-12-16T00:07:46.718Z,90.88
2023-12-16T00:08:21.217Z,90.98
2023-12-16T00:08:55.214Z,91.19
2023-12-16T00:09:29.335Z,91.28
2023-12-16T00:10:03.942Z,91.34
2023-12-16T00:10:40.291Z,90.68
2023-12-16T00:11:28.466Z,90.36
2023-12-16T00:12:02.972Z,90.69
2023-12-16T00:12:37.808Z,90.58
2023-12-16T00:13:12.398Z,90.40
2023-12-16T00:13:46.180Z,90.44
2023-12-16T00:14:20.192Z,90.72
2023-12-16T00:15:10.000Z,91.01
2023-12-16T00:15:44.262Z,91.13
2023-12-16T00:16:18.328Z,91.07
2023-12-16T00:16:52.732Z,91.28
2023-12-16T00:17:38.196Z,91.70
2023-12-16T00:18:47.628Z,91.71
2023-12-16T00:19:21.738Z,92.04
2023-12-16T00:19:57.072Z,92.34
2023-12-16T00:20:31.058Z,92.30
2023-12-16T00:21:05.371Z,92.31
2023-12-16T00:21:39.488Z,92.26
2023-12-16T00:22:30.578Z,92.33
2023-12-16T00:23:04.892Z,92.20
2023-12-16T00:23:39.209Z,92.15
2023-12-16T00:24:14.951Z,92.09
2023-12-16T00:24:49.289Z,92.08
2023-12-16T00:25:23.244Z,92.30
2023-12-16T00:26:10.126Z,92.50
2023-12-16T00:26:44.154Z,92.72
2023-12-16T00:27:17.811Z,92.76
2023-12-16T00:27:51.506Z,92.79
2023-12-16T00:28:26.072Z,92.87
2023-12-16T00:29:00.280Z,93.07
2023-12-16T00:29:51.179Z,92.79
2023-12-16T00:30:27.595Z,92.69
2023-12-16T00:31:02.483Z,92.91
2023-12-16T00:31:36.331Z,93.01
2023-12-16T00:32:10.187Z,93.05
2023-12-16T00:32:45.303Z,93.16
2023-12-16T00:33:36.017Z,93.23
2023-12-16T00:34:12.096Z,93.16
2023-12-16T00:34:45.833Z,93.20
2023-12-16T00:35:20.170Z,92.37
2023-12-16T00:35:55.367Z,92.37
2023-12-16T00:36:29.277Z,92.43
2023-12-16T00:37:15.955Z,92.56
2023-12-16T00:37:50.314Z,92.67
2023-12-16T00:38:24.826Z,92.70
2023-12-16T00:39:01.460Z,92.77
2023-12-16T00:39:36.659Z,92.88
2023-12-16T00:40:11.770Z,92.96
2023-12-16T00:41:00.835Z,92.72
2023-12-16T00:41:36.858Z,92.21
2023-12-16T00:42:10.766Z,92.34
2023-12-16T00:42:44.708Z,92.45
2023-12-16T00:43:18.642Z,92.61
2023-12-16T00:43:52.819Z,92.65
2023-12-16T00:44:35.370Z,92.32
2023-12-16T00:45:09.448Z,92.21
2023-12-16T00:45:43.189Z,92.02
2023-12-16T00:46:17.165Z,92.18
2023-12-16T00:46:50.814Z,92.45
2023-12-16T00:47:25.736Z,92.64
2023-12-16T00:48:15.941Z,92.76
2023-12-16T00:48:49.869Z,92.77
2023-12-16T00:49:23.679Z,92.85
2023-12-16T00:49:57.762Z,92.90
2023-12-16T00:50:33.514Z,92.83
2023-12-16T00:51:08.057Z,92.27
2023-12-16T00:51:58.124Z,92.32
2023-12-16T00:52:32.458Z,92.14
2023-12-16T00:53:06.698Z,92.14
2023-12-16T00:53:40.802Z,91.52
2023-12-16T00:54:14.790Z,90.86
2023-12-16T00:54:49.341Z,90.76
2023-12-16T00:55:36.273Z,90.46
2023-12-16T00:56:11.029Z,90.82
2023-12-16T00:56:44.897Z,91.21
2023-12-16T00:57:18.769Z,91.70
2023-12-16T00:57:52.876Z,91.91
2023-12-16T00:58:26.784Z,92.13
2023-12-16T00:59:13.715Z,92.30
2023-12-16T00:59:47.449Z,92.40
2023-12-16T01:00:21.074Z,92.54
2023-12-16T01:00:55.229Z,92.52
2023-12-16T01:01:29.554Z,92.57
2023-12-16T01:02:09.945Z,92.65
2023-12-16T01:02:52.449Z,92.43
2023-12-16T01:03:30.811Z,92.50
2023-12-16T01:04:07.731Z,91.40
2023-12-16T01:04:44.349Z,91.53
2023-12-16T01:05:20.222Z,91.88
2023-12-16T01:05:53.966Z,92.16
2023-12-16T01:06:40.493Z,92.21
2023-12-16T01:07:14.506Z,92.24
2023-12-16T01:07:48.479Z,92.13
2023-12-16T01:08:22.371Z,92.16
2023-12-16T01:08:56.869Z,92.28
2023-12-16T01:09:31.078Z,92.29
2023-12-16T01:10:21.454Z,91.86
2023-12-16T01:10:55.001Z,91.94
2023-12-16T01:11:29.772Z,92.10
2023-12-16T01:12:03.960Z,92.02
2023-12-16T01:12:37.775Z,91.15
2023-12-16T01:13:11.609Z,91.39
2023-12-16T01:14:06.654Z,91.40
2023-12-16T01:14:40.272Z,91.40
2023-12-16T01:15:14.123Z,91.37
2023-12-16T01:15:47.985Z,91.52
2023-12-16T01:16:21.903Z,91.64
2023-12-16T01:16:56.220Z,91.60
2023-12-16T01:17:43.205Z,91.28
2023-12-16T01:18:18.227Z,91.46
2023-12-16T01:18:52.749Z,91.49
2023-12-16T01:19:33.215Z,91.47
2023-12-16T01:20:09.916Z,91.66
2023-12-16T01:20:43.951Z,91.69
2023-12-16T01:21:30.876Z,91.71
2023-12-16T01:22:05.867Z,91.51
2023-12-16T01:22:39.822Z,91.33
2023-12-16T01:23:15.150Z,91.31
2023-12-16T01:23:49.315Z,91.30
2023-12-16T01:24:22.970Z,90.76
2023-12-16T01:25:10.109Z,90.62
2023-12-16T01:25:44.042Z,90.29
2023-12-16T01:26:17.994Z,90.48
2023-12-16T01:26:51.968Z,90.85
2023-12-16T01:27:27.924Z,91.12
2023-12-16T01:28:02.227Z,91.40
2023-12-16T01:28:51.217Z,91.48
2023-12-16T01:29:32.007Z,91.46
2023-12-16T01:30:10.956Z,91.58
2023-12-16T01:30:45.243Z,91.66
2023-12-16T01:31:20.207Z,91.63
2023-12-16T01:32:28.771Z,91.45
2023-12-16T01:33:03.428Z,91.52
2023-12-16T01:33:37.815Z,91.63
2023-12-16T01:34:12.166Z,91.37
2023-12-16T01:34:46.313Z,90.51
2023-12-16T01:35:20.485Z,90.15
2023-12-16T01:36:10.468Z,89.95
2023-12-16T01:36:44.214Z,89.29
2023-12-16T01:37:18.067Z,89.09
2023-12-16T01:37:52.014Z,88.76
2023-12-16T01:38:25.965Z,88.83
2023-12-16T01:38:59.852Z,89.07
2023-12-16T01:39:51.437Z,89.71
2023-12-16T01:40:25.718Z,89.60
2023-12-16T01:41:02.246Z,90.02
2023-12-16T01:41:36.579Z,90.38
2023-12-16T01:42:10.669Z,90.13
2023-12-16T01:42:47.594Z,89.52
2023-12-16T01:43:33.678Z,90.04
2023-12-16T01:44:09.605Z,90.14
2023-12-16T01:44:43.410Z,90.21
2023-12-16T01:45:20.588Z,90.15
2023-12-16T01:46:03.332Z,90.09
2023-12-16T01:47:15.681Z,89.93
2023-12-16T01:47:49.857Z,89.98
2023-12-16T01:48:24.429Z,90.14
2023-12-16T01:48:59.237Z,90.00
2023-12-16T01:49:34.442Z,90.31
2023-12-16T01:50:12.234Z,90.53
2023-12-16T01:51:20.354Z,90.68
2023-12-16T01:51:54.727Z,90.73
2023-12-16T01:52:32.120Z,90.83
2023-12-16T01:53:09.877Z,91.01
2023-12-16T01:53:44.604Z,91.20
2023-12-16T01:54:40.463Z,90.23
2023-12-16T01:55:15.486Z,90.51
2023-12-16T01:55:49.568Z,90.56
2023-12-16T01:56:23.535Z,90.68
2023-12-16T01:56:59.505Z,90.25
2023-12-16T01:57:35.422Z,90.10
2023-12-16T01:58:18.780Z,90.11
2023-12-16T01:58:53.448Z,90.52
2023-12-16T01:59:29.125Z,90.16
2023-12-16T02:00:07.996Z,90.28
2023-12-16T02:00:48.965Z,89.88
2023-12-16T02:01:23.711Z,90.12
2023-12-16T02:02:16.218Z,90.27
2023-12-16T02:02:50.183Z,90.05
2023-12-16T02:03:24.687Z,90.08
2023-12-16T02:03:58.492Z,90.22
2023-12-16T02:04:35.484Z,90.29
2023-12-16T02:05:46.043Z,91.06
2023-12-16T02:06:32.164Z,91.26
2023-12-16T02:07:12.756Z,91.28
2023-12-16T02:07:49.791Z,90.80
2023-12-16T02:08:26.568Z,90.67
2023-12-16T02:09:46.166Z,91.48
2023-12-16T02:10:21.131Z,91.51
2023-12-16T02:10:55.631Z,91.66
2023-12-16T02:11:31.826Z,91.92
2023-12-16T02:12:06.567Z,92.05
2023-12-16T02:12:42.217Z,92.13
2023-12-16T02:13:28.863Z,91.65
2023-12-16T02:14:04.041Z,92.28
2023-12-16T02:14:37.921Z,92.09
2023-12-16T02:15:11.808Z,92.22
2023-12-16T02:15:46.862Z,91.85
2023-12-16T02:16:20.749Z,91.61
2023-12-16T02:17:14.331Z,92.02
2023-12-16T02:17:48.490Z,92.42
2023-12-16T02:18:22.613Z,92.42
2023-12-16T02:18:56.766Z,92.52
2023-12-16T02:19:31.949Z,92.66
2023-12-16T02:20:07.267Z,93.22
2023-12-16T02:20:52.200Z,92.82
2023-12-16T02:22:19.247Z,93.74
2023-12-16T02:22:54.369Z,93.27
2023-12-16T02:23:28.245Z,92.94
2023-12-16T02:24:02.612Z,92.87
2023-12-16T02:24:52.673Z,93.43
2023-12-16T02:25:27.122Z,93.23
2023-12-16T02:26:01.897Z,92.97
2023-12-16T02:26:35.856Z,93.03
2023-12-16T02:27:10.252Z,92.65
2023-12-16T02:27:46.014Z,92.21
2023-12-16T02:28:32.819Z,92.35
2023-12-16T02:29:07.500Z,91.91
2023-12-16T02:29:41.252Z,91.80
2023-12-16T02:30:15.126Z,92.30
2023-12-16T02:30:49.103Z,92.16
2023-12-16T02:31:23.171Z,91.89
2023-12-16T02:32:14.470Z,91.83
2023-12-16T02:32:55.799Z,92.52
2023-12-16T02:33:30.744Z,92.31
2023-12-16T02:34:05.164Z,92.49
2023-12-16T02:34:40.366Z,92.11
2023-12-16T02:35:14.565Z,91.84
2023-12-16T02:36:04.401Z,92.51
2023-12-16T02:36:38.243Z,92.24
2023-12-16T02:37:14.315Z,92.41
2023-12-16T02:37:47.937Z,92.15
2023-12-16T02:38:21.641Z,91.56
2023-12-16T02:38:58.445Z,91.57
2023-12-16T02:39:51.486Z,91.79
2023-12-16T02:40:34.201Z,91.49
2023-12-16T02:41:07.964Z,91.71
2023-12-16T02:41:41.823Z,91.58
2023-12-16T02:42:15.925Z,91.04
2023-12-16T02:43:25.031Z,90.62
2023-12-16T02:44:02.564Z,90.46
2023-12-16T02:44:36.446Z,90.89
2023-12-16T02:45:10.767Z,90.46
2023-12-16T02:45:44.839Z,90.72
2023-12-16T02:46:19.278Z,90.08
2023-12-16T02:47:09.842Z,90.16
2023-12-16T02:47:44.524Z,90.58
2023-12-16T02:48:18.294Z,90.36
2023-12-16T02:48:56.699Z,90.20
2023-12-16T02:49:33.283Z,90.39
2023-12-16T02:50:09.509Z,90.68
2023-12-16T02:50:52.814Z,89.45
2023-12-16T02:51:27.072Z,90.02
2023-12-16T02:52:01.515Z,90.10
2023-12-16T02:52:35.228Z,89.95
2023-12-16T02:53:09.110Z,89.87
2023-12-16T02:53:42.973Z,89.63
2023-12-16T02:54:35.420Z,89.98
2023-12-16T02:55:09.839Z,89.90
2023-12-16T02:55:50.466Z,89.96
2023-12-16T02:56:28.232Z,90.23
2023-12-16T02:57:02.924Z,89.25
2023-12-16T02:58:12.199Z,89.82
2023-12-16T02:58:45.958Z,89.86
2023-12-16T02:59:20.128Z,90.34
2023-12-16T02:59:56.390Z,90.76
2023-12-16T03:06:14.232Z,89.13
2023-12-16T03:06:48.231Z,88.54
2023-12-16T03:07:22.521Z,88.33
2023-12-16T03:07:58.825Z,87.95
2023-12-16T03:08:33.600Z,88.17
2023-12-16T03:09:07.500Z,88.49
2023-12-16T03:09:55.324Z,88.14
2023-12-16T03:10:29.339Z,88.24
2023-12-16T03:11:04.909Z,87.96
2023-12-16T03:11:39.728Z,88.35
2023-12-16T03:12:13.567Z,87.95
2023-12-16T03:12:47.629Z,88.09
2023-12-16T03:13:35.936Z,88.98
2023-12-16T03:14:10.196Z,88.76
2023-12-16T03:14:44.469Z,88.68
2023-12-16T03:15:19.047Z,88.99
2023-12-16T03:15:53.027Z,89.00
2023-12-16T03:16:30.368Z,89.35
2023-12-16T03:17:18.191Z,89.90
2023-12-16T03:17:53.474Z,90.33
2023-12-16T03:18:27.657Z,90.27
2023-12-16T03:19:01.532Z,90.44
2023-12-16T03:19:35.391Z,90.94
2023-12-16T03:20:10.333Z,90.89
2023-12-16T03:20:59.486Z,90.71
2023-12-16T03:21:34.276Z,91.30
2023-12-16T03:22:08.639Z,91.66
2023-12-16T03:22:42.369Z,92.01
2023-12-16T03:23:23.077Z,92.10
2023-12-16T03:23:58.652Z,92.43
2023-12-16T03:24:40.355Z,92.63
2023-12-16T03:25:14.613Z,92.95
2023-12-16T03:25:48.787Z,93.03
2023-12-16T03:26:22.908Z,93.13
2023-12-16T03:26:57.123Z,93.47
2023-12-16T03:27:33.048Z,92.24
2023-12-16T03:28:20.355Z,92.07
2023-12-16T03:28:54.426Z,92.69
2023-12-16T03:29:30.439Z,92.76
2023-12-16T03:30:05.092Z,92.97
2023-12-16T03:30:41.782Z,93.26
2023-12-16T03:31:16.062Z,93.02
2023-12-16T03:32:01.514Z,93.17
2023-12-16T03:32:36.293Z,93.70
2023-12-16T03:33:10.309Z,94.00
2023-12-16T03:33:44.738Z,93.71
2023-12-16T03:34:19.297Z,93.94
2023-12-16T03:34:53.418Z,93.63
2023-12-16T03:35:41.863Z,93.33
2023-12-16T03:36:18.771Z,93.90
2023-12-16T03:36:52.956Z,93.87
2023-12-16T03:37:27.077Z,94.28
2023-12-16T03:38:04.699Z,94.58
2023-12-16T03:38:39.007Z,94.65
2023-12-16T03:39:25.662Z,94.52
2023-12-16T03:40:01.603Z,94.41
2023-12-16T03:40:36.694Z,94.21
2023-12-16T03:41:11.137Z,93.92
2023-12-16T03:41:45.174Z,93.45
2023-12-16T03:42:18.771Z,93.42
2023-12-16T03:43:04.673Z,93.61
2023-12-16T03:43:39.228Z,94.12
2023-12-16T03:44:13.576Z,93.98
2023-12-16T03:44:49.904Z,94.14
2023-12-16T03:45:24.549Z,93.96
2023-12-16T03:46:00.892Z,93.83
2023-12-16T03:46:45.043Z,94.25
2023-12-16T03:47:19.364Z,94.76
2023-12-16T03:47:55.873Z,94.99
2023-12-16T03:48:30.210Z,94.71
2023-12-16T03:49:04.409Z,94.03
2023-12-16T03:49:41.654Z,94.14
2023-12-16T03:50:28.298Z,93.95
2023-12-16T03:51:02.152Z,94.37
2023-12-16T03:51:36.131Z,94.85
2023-12-16T03:52:10.050Z,95.21
2023-12-16T03:52:43.683Z,95.39
2023-12-16T03:53:17.421Z,94.51
2023-12-16T03:54:11.376Z,93.47
2023-12-16T03:54:45.733Z,93.55
2023-12-16T03:55:19.434Z,93.68
2023-12-16T03:55:55.255Z,93.30
2023-12-16T03:56:29.529Z,93.82
2023-12-16T03:57:03.118Z,93.38
2023-12-16T03:57:49.434Z,93.46
2023-12-16T03:58:24.768Z,94.15
2023-12-16T03:59:01.423Z,94.48
2023-12-16T03:59:35.142Z,92.90
2023-12-16T04:00:12.313Z,93.13
2023-12-16T04:00:46.848Z,92.99
2023-12-16T04:01:34.999Z,91.76
2023-12-16T04:02:08.917Z,92.48
2023-12-16T04:02:43.765Z,92.83
2023-12-16T04:03:17.539Z,93.07
2023-12-16T04:03:52.053Z,92.60
2023-12-16T04:04:27.224Z,91.63
2023-12-16T04:05:14.520Z,91.50
2023-12-16T04:05:48.771Z,90.44
2023-12-16T04:06:31.291Z,89.18
2023-12-16T04:07:06.444Z,89.77
2023-12-16T04:07:40.916Z,89.66
2023-12-16T04:08:14.949Z,89.94
2023-12-16T04:08:58.408Z,88.98
2023-12-16T04:09:32.354Z,88.70
2023-12-16T04:10:06.561Z,89.18
2023-12-16T04:10:40.413Z,89.74
2023-12-16T04:11:14.393Z,90.15
2023-12-16T04:11:50.957Z,90.30
2023-12-16T04:12:43.001Z,89.67
2023-12-16T04:13:17.432Z,89.02
2023-12-16T04:13:51.823Z,88.37
2023-12-16T04:14:31.051Z,87.94
2023-12-16T04:15:08.823Z,87.95
2023-12-16T04:15:43.083Z,88.08
2023-12-16T04:16:27.252Z,88.98
2023-12-16T04:17:01.483Z,89.37
2023-12-16T04:17:35.430Z,88.93
2023-12-16T04:18:09.162Z,88.24
2023-12-16T04:18:43.394Z,88.63
2023-12-16T04:19:17.733Z,88.02
2023-12-16T04:20:06.776Z,87.82
2023-12-16T04:20:40.509Z,87.25
2023-12-16T04:21:17.825Z,87.40
2023-12-16T04:21:51.533Z,87.62
2023-12-16T04:22:26.001Z,86.30
2023-12-16T04:23:05.704Z,85.98
2023-12-16T04:23:48.903Z,86.58
2023-12-16T04:24:23.697Z,86.74
2023-12-16T04:24:59.603Z,86.34
2023-12-16T04:25:34.153Z,86.05
2023-12-16T04:26:08.760Z,85.91
2023-12-16T04:26:43.513Z,86.58
2023-12-16T04:27:29.418Z,86.36
2023-12-16T04:28:04.002Z,86.60
2023-12-16T04:28:38.020Z,86.63
2023-12-16T04:29:11.672Z,86.43
2023-12-16T04:29:46.118Z,85.86
2023-12-16T04:30:30.773Z,86.19
2023-12-16T04:31:18.878Z,86.83
2023-12-16T04:31:54.582Z,86.69
2023-12-16T04:32:29.947Z,86.52
2023-12-16T04:33:04.100Z,86.34
2023-12-16T04:33:38.309Z,86.12
2023-12-16T04:34:12.678Z,85.17
2023-12-16T04:34:55.573Z,84.14
2023-12-16T04:35:30.270Z,84.31
2023-12-16T04:36:04.606Z,83.76
2023-12-16T04:36:38.741Z,84.11
2023-12-16T04:37:12.737Z,84.29
2023-12-16T04:37:49.180Z,82.90
2023-12-16T04:38:42.694Z,83.83
2023-12-16T04:39:16.892Z,83.53
2023-12-16T04:39:51.618Z,82.52
2023-12-16T04:40:26.500Z,82.08
2023-12-16T04:41:02.984Z,82.09
2023-12-16T04:42:14.208Z,81.76
2023-12-16T04:42:48.727Z,82.17
2023-12-16T04:43:23.016Z,83.00
2023-12-16T04:43:56.719Z,82.77
2023-12-16T04:44:30.550Z,82.48
2023-12-16T04:45:07.438Z,82.32
2023-12-16T04:45:54.094Z,82.61
2023-12-16T04:46:29.457Z,83.14
2023-12-16T04:47:06.795Z,83.45
2023-12-16T04:47:42.277Z,83.37
2023-12-16T04:48:16.481Z,83.58
2023-12-16T04:48:50.796Z,82.90
2023-12-16T04:49:37.320Z,83.33
2023-12-16T04:50:11.279Z,83.59
2023-12-16T04:50:45.263Z,83.05
2023-12-16T04:51:21.602Z,82.40
2023-12-16T04:51:55.108Z,82.75
2023-12-16T04:52:28.986Z,83.05
2023-12-16T04:53:22.361Z,83.48
2023-12-16T04:53:57.852Z,83.41
2023-12-16T04:54:32.313Z,83.24
2023-12-16T04:55:07.708Z,83.20
2023-12-16T04:55:41.156Z,82.51
2023-12-16T04:56:18.467Z,82.92
2023-12-16T04:57:01.263Z,83.27
2023-12-16T04:57:35.549Z,83.36
2023-12-16T04:58:09.845Z,83.56
2023-12-16T04:58:43.695Z,83.58
2023-12-16T04:59:17.042Z,83.70
2023-12-16T04:59:50.548Z,83.39
2023-12-16T05:00:40.876Z,83.89
2023-12-16T05:01:14.567Z,84.14
2023-12-16T05:01:49.035Z,83.81
2023-12-16T05:02:23.810Z,83.75
2023-12-16T05:02:57.303Z,84.14
2023-12-16T05:03:33.553Z,83.57
2023-12-16T05:04:20.958Z,83.22
2023-12-16T05:04:54.946Z,83.15
2023-12-16T05:05:31.449Z,83.38
2023-12-16T05:06:05.664Z,83.28
2023-12-16T05:06:39.913Z,83.49
2023-12-16T05:07:13.671Z,83.46
2023-12-16T05:08:01.258Z,83.64
2023-12-16T05:08:35.454Z,83.33
2023-12-16T05:09:14.015Z,83.38
2023-12-16T05:09:47.505Z,83.45
2023-12-16T05:10:21.677Z,83.75
2023-12-16T05:10:55.689Z,84.11
2023-12-16T05:11:44.668Z,84.42
2023-12-16T05:12:34.835Z,84.59
2023-12-16T05:13:14.074Z,84.83
2023-12-16T05:13:47.988Z,84.75
2023-12-16T05:14:21.446Z,84.59
2023-12-16T05:15:32.036Z,82.63
2023-12-16T05:16:07.093Z,82.69
2023-12-16T05:16:45.560Z,82.93
2023-12-16T05:17:21.405Z,83.08
2023-12-16T05:17:57.125Z,83.36
2023-12-16T05:18:33.169Z,82.85
2023-12-16T05:19:16.002Z,82.88
2023-12-16T05:19:50.619Z,83.16
2023-12-16T05:20:24.378Z,83.17
2023-12-16T05:20:58.455Z,82.18
2023-12-16T05:21:32.532Z,81.42
2023-12-16T05:22:06.382Z,81.95
2023-12-16T05:22:55.699Z,82.85
2023-12-16T05:23:29.630Z,82.98
2023-12-16T05:24:03.312Z,82.37
2023-12-16T05:24:40.329Z,81.80
2023-12-16T05:25:16.362Z,81.22
2023-12-16T05:25:50.697Z,81.79
2023-12-16T05:26:38.123Z,82.35
2023-12-16T05:27:13.433Z,82.64
2023-12-16T05:27:47.710Z,82.64
2023-12-16T05:28:22.171Z,82.94
2023-12-16T05:28:56.809Z,83.23
2023-12-16T05:29:30.396Z,83.16
2023-12-16T05:30:18.109Z,83.19
2023-12-16T05:30:51.934Z,83.55
2023-12-16T05:31:25.370Z,83.81
2023-12-16T05:31:59.316Z,84.00
2023-12-16T05:32:33.701Z,84.22
2023-12-16T05:33:09.316Z,84.42
2023-12-16T05:33:58.874Z,84.77
2023-12-16T05:34:33.129Z,84.92
2023-12-16T05:35:07.823Z,84.95
2023-12-16T05:35:41.560Z,85.18
2023-12-16T05:36:15.346Z,85.33
2023-12-16T05:36:49.332Z,85.45
2023-12-16T05:37:39.130Z,85.78
2023-12-16T05:38:13.036Z,85.89
2023-12-16T05:38:46.698Z,86.02
2023-12-16T05:39:20.385Z,86.14
2023-12-16T05:39:57.073Z,86.09
2023-12-16T05:40:30.901Z,86.06
2023-12-16T05:41:39.830Z,86.25
2023-12-16T05:42:14.254Z,86.38
2023-12-16T05:42:50.962Z,86.33
2023-12-16T05:43:25.214Z,86.42
2023-12-16T05:44:00.445Z,86.17
2023-12-16T05:44:59.692Z,86.00
2023-12-16T05:45:33.208Z,86.28
2023-12-16T05:46:06.792Z,86.42
2023-12-16T05:46:40.492Z,86.36
2023-12-16T05:47:14.383Z,86.57
2023-12-16T05:47:47.774Z,86.64
2023-12-16T05:48:40.055Z,86.49
2023-12-16T05:49:15.789Z,86.45
2023-12-16T05:49:49.757Z,86.70
2023-12-16T05:50:23.482Z,86.83
2023-12-16T05:50:57.341Z,86.69
2023-12-16T05:51:40.388Z,86.63
2023-12-16T05:52:28.030Z,86.19
2023-12-16T05:53:02.059Z,85.99
2023-12-16T05:53:36.397Z,86.07
2023-12-16T05:54:11.529Z,86.50
2023-12-16T05:54:46.713Z,86.84
2023-12-16T05:55:21.581Z,86.49
2023-12-16T05:56:07.787Z,86.62
2023-12-16T05:56:44.306Z,86.91
2023-12-16T05:57:19.094Z,87.18
2023-12-16T05:57:54.681Z,87.31
2023-12-16T05:58:28.572Z,87.22
2023-12-16T05:59:02.187Z,86.75
2023-12-16T05:59:52.420Z,86.74
2023-12-16T06:00:30.238Z,87.20
2023-12-16T06:01:08.914Z,87.76
2023-12-16T06:01:44.412Z,87.84
2023-12-16T06:02:21.150Z,88.08
2023-12-16T06:02:55.719Z,88.27
2023-12-16T06:03:43.558Z,88.34
2023-12-16T06:04:18.681Z,88.30
2023-12-16T06:04:54.999Z,88.22
2023-12-16T06:05:30.318Z,88.26
2023-12-16T06:06:04.603Z,88.23
2023-12-16T06:06:38.789Z,88.23
2023-12-16T06:07:23.542Z,87.87
2023-12-16T06:07:59.964Z,87.95
2023-12-16T06:08:36.034Z,88.27
2023-12-16T06:09:10.369Z,88.42
2023-12-16T06:09:44.153Z,88.52
2023-12-16T06:10:17.663Z,88.38
2023-12-16T06:11:00.385Z,88.42
2023-12-16T06:11:33.956Z,88.63
2023-12-16T06:12:09.113Z,88.55
2023-12-16T06:12:46.776Z,88.37
2023-12-16T06:13:20.690Z,87.36
2023-12-16T06:13:54.302Z,87.27
2023-12-16T06:14:41.321Z,87.58
2023-12-16T06:15:15.708Z,87.78
2023-12-16T06:15:51.119Z,88.08
2023-12-16T06:16:26.858Z,88.39
2023-12-16T06:17:00.613Z,88.65
2023-12-16T06:17:34.764Z,88.69
2023-12-16T06:18:22.456Z,88.79
2023-12-16T06:18:56.194Z,88.88
2023-12-16T06:19:31.216Z,88.25
2023-12-16T06:20:07.014Z,88.29
2023-12-16T06:20:41.106Z,88.46
2023-12-16T06:21:14.698Z,88.59
2023-12-16T06:22:02.298Z,88.69
2023-12-16T06:22:38.323Z,88.74
2023-12-16T06:23:11.984Z,88.76
2023-12-16T06:23:45.737Z,88.78
2023-12-16T06:24:19.421Z,88.69
2023-12-16T06:24:52.706Z,88.67
2023-12-16T06:25:48.679Z,88.86
2023-12-16T06:26:22.252Z,88.82
2023-12-16T06:26:56.309Z,88.55
2023-12-16T06:27:31.828Z,88.35
2023-12-16T06:28:09.024Z,88.33
2023-12-16T06:29:24.434Z,88.28
2023-12-16T06:29:58.251Z,88.56
2023-12-16T06:30:32.387Z,88.63
2023-12-16T06:31:07.182Z,88.79
2023-12-16T06:31:43.529Z,88.92
2023-12-16T06:32:17.383Z,89.02
2023-12-16T06:33:05.101Z,89.18
2023-12-16T06:33:39.484Z,89.09
2023-12-16T06:34:14.031Z,89.17
2023-12-16T06:34:47.842Z,89.22
2023-12-16T06:35:21.742Z,89.24
2023-12-16T06:35:56.215Z,89.24
2023-12-16T06:36:45.657Z,88.94
2023-12-16T06:37:19.457Z,88.64
2023-12-16T06:37:53.164Z,88.35
2023-12-16T06:38:26.646Z,88.59
2023-12-16T06:39:00.349Z,88.97
2023-12-16T06:39:34.688Z,89.24
2023-12-16T06:40:30.628Z,89.45
2023-12-16T06:41:05.168Z,89.59
2023-12-16T06:41:39.126Z,89.76
2023-12-16T06:42:13.473Z,89.82
2023-12-16T06:42:47.233Z,89.93
2023-12-16T06:43:21.029Z,89.94
2023-12-16T06:44:06.520Z,90.04
2023-12-16T06:44:39.963Z,89.95
2023-12-16T06:45:14.005Z,90.09
2023-12-16T06:45:47.958Z,89.98
2023-12-16T06:46:21.750Z,89.73
2023-12-16T06:46:55.440Z,89.81
2023-12-16T06:47:44.859Z,89.97
2023-12-16T06:48:22.100Z,90.19
2023-12-16T06:48:56.147Z,90.07
2023-12-16T06:49:30.290Z,90.23
2023-12-16T06:50:08.443Z,90.80
2023-12-16T06:50:43.598Z,91.08
2023-12-16T06:51:26.565Z,91.46
2023-12-16T06:52:01.595Z,91.69
2023-12-16T06:52:37.368Z,91.45
2023-12-16T06:53:11.742Z,91.58
2023-12-16T06:53:47.796Z,91.77
2023-12-16T06:54:21.089Z,91.82
2023-12-16T06:55:12.982Z,91.90
2023-12-16T06:55:46.396Z,92.32
2023-12-16T06:56:20.183Z,92.35
2023-12-16T06:56:54.509Z,92.24
2023-12-16T06:57:28.551Z,92.21
2023-12-16T06:58:03.266Z,92.38
2023-12-16T06:58:49.738Z,92.04
2023-12-16T06:59:23.615Z,91.78
2023-12-16T06:59:58.280Z,91.68
2023-12-16T07:00:32.140Z,91.71
2023-12-16T07:01:05.869Z,92.14
2023-12-16T07:01:39.684Z,92.22
2023-12-16T07:02:30.572Z,92.46
2023-12-16T07:03:04.541Z,93.08
2023-12-16T07:03:38.656Z,93.43
2023-12-16T07:04:12.501Z,93.25
2023-12-16T07:04:46.674Z,93.34
2023-12-16T07:05:20.625Z,93.22
2023-12-16T07:06:12.683Z,93.11
2023-12-16T07:06:47.308Z,93.70
2023-12-16T07:07:20.941Z,94.06
2023-12-16T07:07:54.640Z,94.16
2023-12-16T07:08:28.327Z,94.29
2023-12-16T07:09:01.783Z,94.33
2023-12-16T07:09:50.350Z,93.79
2023-12-16T07:10:23.927Z,93.76
2023-12-16T07:11:00.844Z,93.56
2023-12-16T07:11:36.829Z,93.71
2023-12-16T07:12:11.128Z,93.96
2023-12-16T07:12:44.985Z,94.11
2023-12-16T07:13:55.074Z,93.99
2023-12-16T07:14:30.354Z,94.06
2023-12-16T07:15:04.095Z,93.88
2023-12-16T07:15:39.669Z,93.75
2023-12-16T07:16:16.354Z,93.82
2023-12-16T07:17:09.005Z,94.04
2023-12-16T07:17:43.798Z,94.26
2023-12-16T07:18:17.952Z,94.62
2023-12-16T07:18:52.005Z,94.80
2023-12-16T07:19:25.974Z,95.10
2023-12-16T07:19:59.927Z,94.71
2023-12-16T07:20:50.591Z,93.90
2023-12-16T07:21:24.530Z,93.85
2023-12-16T07:22:00.193Z,94.26
2023-12-16T07:22:34.406Z,94.20
2023-12-16T07:23:08.647Z,93.98
2023-12-16T07:23:43.412Z,93.58
2023-12-16T07:24:31.253Z,93.59
2023-12-16T07:25:05.962Z,94.10
2023-12-16T07:25:42.093Z,94.49
2023-12-16T07:26:16.538Z,94.92
2023-12-16T07:26:50.661Z,94.76
2023-12-16T07:27:24.951Z,94.11
2023-12-16T07:28:14.387Z,93.80
2023-12-16T07:28:49.658Z,94.18
2023-12-16T07:29:24.348Z,94.10
2023-12-16T07:30:07.937Z,94.41
2023-12-16T07:30:45.209Z,94.62
2023-12-16T07:31:19.216Z,94.82
2023-12-16T07:32:07.259Z,94.99
2023-12-16T07:32:44.708Z,95.14
2023-12-16T07:33:18.370Z,94.90
2023-12-16T07:33:54.407Z,95.01
2023-12-16T07:34:28.252Z,94.85
2023-12-16T07:35:04.595Z,95.05
2023-12-16T07:35:54.914Z,94.63
2023-12-16T07:36:29.172Z,94.70
2023-12-16T07:37:08.988Z,94.91
2023-12-16T07:37:44.096Z,95.22
2023-12-16T07:38:17.842Z,95.28
2023-12-16T07:39:26.712Z,94.82
2023-12-16T07:40:00.642Z,94.55
2023-12-16T07:40:36.799Z,94.75
2023-12-16T07:41:10.957Z,94.37
2023-12-16T07:41:45.025Z,94.35
2023-12-16T07:42:19.339Z,94.44
2023-12-16T07:43:10.009Z,94.26
2023-12-16T07:43:44.614Z,94.43
2023-12-16T07:44:18.791Z,94.66
2023-12-16T07:44:52.284Z,94.82
2023-12-16T07:45:26.047Z,94.78
2023-12-16T07:45:59.903Z,94.88
2023-12-16T07:46:49.273Z,95.08
2023-12-16T07:47:23.060Z,94.95
2023-12-16T07:47:58.441Z,94.80
2023-12-16T07:48:32.599Z,94.65
2023-12-16T07:49:07.403Z,94.73
2023-12-16T07:49:41.559Z,95.00
2023-12-16T07:50:26.200Z,95.27
2023-12-16T07:51:00.270Z,95.35
2023-12-16T07:51:34.192Z,94.93
2023-12-16T07:52:07.927Z,94.86
2023-12-16T07:52:41.843Z,94.86
2023-12-16T07:53:17.303Z,94.67
2023-12-16T07:54:12.377Z,94.91
2023-12-16T07:54:46.319Z,95.17
2023-12-16T07:55:19.573Z,95.31
2023-12-16T07:55:53.355Z,95.04
2023-12-16T07:56:30.701Z,94.99
2023-12-16T07:57:05.943Z,94.99
2023-12-16T07:57:49.565Z,94.96
2023-12-16T07:58:23.514Z,94.99
2023-12-16T07:59:04.354Z,94.92
2023-12-16T07:59:42.896Z,94.93
2023-12-16T08:00:16.878Z,95.13
2023-12-16T08:00:50.705Z,95.18
2023-12-16T08:01:52.555Z,95.02
2023-12-16T08:02:26.246Z,95.19
2023-12-16T08:03:00.155Z,95.32
2023-12-16T08:03:34.140Z,95.19
2023-12-16T08:04:07.701Z,95.29
2023-12-16T08:05:24.626Z,94.61
2023-12-16T08:05:58.450Z,94.83
2023-12-16T08:06:33.997Z,95.05
2023-12-16T08:07:08.103Z,95.27
2023-12-16T08:07:46.900Z,95.31
2023-12-16T08:08:52.828Z,95.10
2023-12-16T08:09:27.289Z,94.87
2023-12-16T08:10:01.836Z,94.80
2023-12-16T08:10:37.328Z,94.53
2023-12-16T08:11:11.733Z,94.96
2023-12-16T08:11:48.012Z,94.95
2023-12-16T08:12:35.010Z,95.28